Aérodrome :
LOGIN :

S'inscrire | Disclaimer

   EN    FR    IT 

 










Légende :    VFR   VFR Marginal   IFR   IFR Intensif   IFR Très Intensif
Visi : 
Plafond : 
>= 8 km
>= 3000ft
5 à 8 km
1000 à 3000 ft
1500m à 5 km
500 à 1000 ft
800 à 1500m
200 à 500 ft
< 800m
< 200 ft
Symboles :   Orages  Brouillard  Fortes neiges  Fortes précipitations  Vent > 20 kt
SIGMETs :   Divers  Orages  Givrage  Turbulence  Onde Orograph.  Cendres Volcan.






- Altitude de l'aérodrome : 235 ft
- Code IATA : BZG


EPBY - Bydgoszcz

DERNIER METAR :
  • 261830Z 18004KT 140V210 9999 SCT018 15/12 Q0997

METARs EXPIRÉS :
  • 261800Z 19008KT 160V220 9999 FEW014 BKN021 15/12 Q0996
  • 261730Z 18011KT 9999 FEW015 BKN022 16/13 Q0996
  • 261700Z 19011KT 9999 FEW019 BKN034 17/14 Q0995
  • 261630Z 18010KT 140V220 9999 FEW017 BKN030 19/14 Q0994
  • 261600Z 14008KT 9999 SCT025 19/16 Q0993

TAF TAF EPBY
Valide du 26 à 18h jusqu'au 27 à 18h UTC


261730Z 2618/2718 18008KT 9999 SCT017 BKN033
TEMPO 2620/2710 23012KT 5000 SHRA BKN008 BKN015CB
BECMG 2700/2702 25012KT 5000 -RA BR BKN005 OVC012
PROB40
TEMPO 2710/2718 20014G26KT



MET'MAP, la Météo Aéronautique d'un coup d'oeil ! - Copyright ORBIFLY Décembre 2007 - Disclaimer

ORBIFLY MET'MAP TEAM :

Programmation & Développement : Alexandra Zaïnal
Sur une idée originale de : Baudouin d'Aumeries
Assistance à la programmation : Marc-Olivier Méhu
Soutien technique & logistique : Manuel Goepfert

Contact : metmap@orbifly.com




SOURCES & CREDITS :

   NOAA